メインページ
METAR-TAF:

METAR-TAF

空港 :

ンジャメナ国際空港

ンジャメナ, チャド

緯度: 12-08N, 経度: 015-02E, 海抜: 295m

現時点の気象観測

当レポートは5時間7分前の06:00(UTC)に作成
西/南西の風 6kt、西/南西から北西の間で変化する
気温 25°C
湿度 89%
気圧 1010 hPa
視程10km以上
高度2600ftの雲はほとんどない

METAR: FTTJ 200600Z 25006KT 250V320 9999 FEW026 25/23 Q1010 NOSIG

時間: 12:07 (11:07 UTC)

予報

当レポートは6時間7分前の05:00(UTC)に作成
予報は20日の 06時(UTC)から 21日の 12時(UTC)まで有効
南/南西の風 6kt
高度3000ftの雲はほとんどない
確率 30% :
20日の 15時(UTC)から 20日の 21時(UTC)まで一時的に
激しい雷雨

TAF: FTTJ 200500Z 2006/2112 20006KT FEW030 PROB30 TEMPO 2015/2021 TS

4,000以上の空港の気象観測と天気予報(METAR報とTAF報)

利用可能な観測所は地図上に黄色い丸と赤い丸で示す。

丸の上にカーソルを重ねると観測所名を参照できる。

次にクリックすると気象観測と天気予報を参照できる。

マップの切り替え:黒色「×」印の緑ボタンをクリックして拡大、「-」印の緑ボタンをクリックして縮小、緑色の三角印をクリックして隣りの地図に切り替え


METAR-TAF: